X  Κλείσε Στοιχεία αεροπορικών μετεωρολογικών δεδομένων METAR     KDNN Dalton Municipal Airport
θερμοκρασία
61°F θερμοκρασία
61°F Σημείο δρόσου
100% Υγρασία



Ανεμος
0 MPH
0 KM/H
0 M/S
0 KTS



Ηρεμία
V
Τρέχουσες συνθήκες

Σαφή Σαφή
πίεση 1015.24 (hPa) - 29.98 (inHg)
Ορατότητα 8 (μίλι) - 12.9 (km)
Aεροδρόμιο
Κωδικός αεροδρομίου KDNN

Τοποθεσία: Dalton Municipal Airport
Απόσταση: 34 (mi)

Metar:
KDNN 251035Z AUTO 00000KT 8SM CLR 16/16 A2998 RMK AO2 T01620160

ώρα: 06-25-2024 06:35 EDT